Earlville, Iowa
Current Conditions -  °F | °C
As of 4:55 PM on Wednesday 26 Nov 2014 (Local Time) from KMXO Reporting Station
Haze Haze  
Wind Chill: 20°   Ceiling: 1100
Heat Index: 28°   Visibility: 6mi
Dew Point: 25°   Wind: 9mph
Humidity: 86%   Direction: 20°NNE
Pressure: 30.14"   Gusts: 15mph
Location:  42.48°N, 91.27°W
Report Text: KMXO 262255Z AUTO 02008G13KT 6SM BR OVC011 M02/M04 A3014 RMK AO2
Loading
Personal Weather Stations






























Interactive Weather Map New forecast layout! Learn more

10-Day Weather Forecast

Advertisements
Track Severe Weather on mobile